WZZ4D1 LQSA-LYBE
Flight info
| Callsign | WZZ4D1 |
|---|---|
| Flight time | 0h 31m |
| Altitude | 23000 |
| Route | SOMUN L5 ENUPU |
| Aircraft | A20N/M-V/N |
Departure
| Time | 2026-05-01 10:55 |
|---|---|
| Airport | Sarajevo International Airport (LQSA) |
Arrival
| Time | 2026-05-01 11:26 |
|---|---|
| Airport | Belgrade Nikola Tesla Airport (LYBE) |
| Time | Latitude | Longitude | Altitude | Speed | Heading |
|---|---|---|---|---|---|
| 2026-05-01 10:45 | 43.82568 | 18.33506 | 1677 ft | 0 kts | 29° |
| 2026-05-01 10:50 | 43.82570 | 18.33507 | 1678 ft | 0 kts | 35° |
| 2026-05-01 10:50 | 43.82569 | 18.33514 | 1678 ft | 0 kts | 114° |
| 2026-05-01 10:51 | 43.82560 | 18.33510 | 1678 ft | 4 kts | 221° |
| 2026-05-01 10:51 | 43.82523 | 18.33480 | 1678 ft | 7 kts | 166° |
| 2026-05-01 10:51 | 43.82492 | 18.33534 | 1679 ft | 7 kts | 118° |
| 2026-05-01 10:51 | 43.82469 | 18.33595 | 1681 ft | 6 kts | 117° |
| 2026-05-01 10:52 | 43.82441 | 18.33670 | 1682 ft | 11 kts | 116° |
| 2026-05-01 10:52 | 43.82391 | 18.33807 | 1686 ft | 20 kts | 118° |
| 2026-05-01 10:52 | 43.82320 | 18.33997 | 1689 ft | 22 kts | 117° |
| 2026-05-01 10:52 | 43.82248 | 18.34185 | 1695 ft | 21 kts | 116° |
| 2026-05-01 10:53 | 43.82182 | 18.34365 | 1701 ft | 19 kts | 117° |
| 2026-05-01 10:53 | 43.82125 | 18.34520 | 1707 ft | 15 kts | 117° |
| 2026-05-01 10:53 | 43.82048 | 18.34622 | 1711 ft | 17 kts | 166° |
| 2026-05-01 10:53 | 43.81952 | 18.34588 | 1711 ft | 12 kts | 206° |
| 2026-05-01 10:54 | 43.81957 | 18.34483 | 1708 ft | 14 kts | 298° |
| 2026-05-01 10:54 | 43.82102 | 18.34100 | 1694 ft | 84 kts | 298° |
| 2026-05-01 10:54 | 43.82482 | 18.33085 | 1672 ft | 150 kts | 298° |
| 2026-05-01 10:54 | 43.82993 | 18.31657 | 2029 ft | 172 kts | 301° |
| 2026-05-01 10:55 | 43.83612 | 18.30311 | 2686 ft | 167 kts | 330° |
| 2026-05-01 10:55 | 43.84641 | 18.30048 | 3428 ft | 153 kts | 22° |
| 2026-05-01 10:55 | 43.85471 | 18.30905 | 3965 ft | 160 kts | 50° |
| 2026-05-01 10:55 | 43.86164 | 18.32215 | 4438 ft | 175 kts | 51° |
| 2026-05-01 10:56 | 43.86920 | 18.33574 | 5018 ft | 184 kts | 50° |
| 2026-05-01 10:56 | 43.87736 | 18.34993 | 5579 ft | 197 kts | 50° |
| 2026-05-01 10:56 | 43.88606 | 18.36521 | 6199 ft | 209 kts | 51° |
| 2026-05-01 10:56 | 43.89487 | 18.38096 | 7040 ft | 210 kts | 51° |
| 2026-05-01 10:57 | 43.90371 | 18.39674 | 7901 ft | 212 kts | 51° |
| 2026-05-01 10:57 | 43.91270 | 18.41272 | 8791 ft | 212 kts | 51° |
| 2026-05-01 10:57 | 43.92160 | 18.42853 | 9646 ft | 213 kts | 52° |
| 2026-05-01 10:57 | 43.93110 | 18.44432 | 10499 ft | 215 kts | 46° |
| 2026-05-01 10:58 | 43.94215 | 18.45807 | 11246 ft | 221 kts | 38° |
| 2026-05-01 10:58 | 43.95511 | 18.47115 | 11747 ft | 238 kts | 37° |
| 2026-05-01 10:58 | 43.96898 | 18.48474 | 12208 ft | 256 kts | 36° |
| 2026-05-01 10:58 | 43.98397 | 18.49936 | 12806 ft | 269 kts | 36° |
| 2026-05-01 10:59 | 43.99932 | 18.51430 | 13645 ft | 272 kts | 36° |
| 2026-05-01 10:59 | 44.01483 | 18.52944 | 14479 ft | 275 kts | 36° |
| 2026-05-01 10:59 | 44.03059 | 18.54484 | 15107 ft | 285 kts | 36° |
| 2026-05-01 10:59 | 44.04723 | 18.56113 | 15476 ft | 302 kts | 36° |
| 2026-05-01 11:00 | 44.06488 | 18.57842 | 15809 ft | 320 kts | 36° |
| 2026-05-01 11:00 | 44.08349 | 18.59667 | 16125 ft | 337 kts | 35° |
| 2026-05-01 11:00 | 44.10331 | 18.61610 | 16427 ft | 353 kts | 36° |
| 2026-05-01 11:00 | 44.12371 | 18.63613 | 16689 ft | 368 kts | 35° |
| 2026-05-01 11:01 | 44.14495 | 18.65700 | 16959 ft | 383 kts | 36° |
| 2026-05-01 11:01 | 44.16697 | 18.67865 | 17223 ft | 395 kts | 36° |
| 2026-05-01 11:01 | 44.18986 | 18.70115 | 17703 ft | 402 kts | 36° |
| 2026-05-01 11:01 | 44.21260 | 18.72355 | 18280 ft | 405 kts | 36° |
| 2026-05-01 11:02 | 44.23575 | 18.74639 | 18853 ft | 408 kts | 36° |
| 2026-05-01 11:02 | 44.25903 | 18.76938 | 19398 ft | 411 kts | 36° |
| 2026-05-01 11:02 | 44.28212 | 18.79221 | 19931 ft | 414 kts | 36° |
| 2026-05-01 11:02 | 44.30571 | 18.81555 | 20485 ft | 416 kts | 36° |
| 2026-05-01 11:03 | 44.32939 | 18.83898 | 21039 ft | 418 kts | 36° |
| 2026-05-01 11:03 | 44.35302 | 18.86239 | 21526 ft | 421 kts | 36° |
| 2026-05-01 11:03 | 44.37685 | 18.88602 | 22007 ft | 424 kts | 36° |
| 2026-05-01 11:03 | 44.40111 | 18.91014 | 22462 ft | 427 kts | 36° |
| 2026-05-01 11:04 | 44.42512 | 18.93402 | 22903 ft | 430 kts | 36° |
| 2026-05-01 11:04 | 44.44948 | 18.95827 | 23259 ft | 431 kts | 36° |
| 2026-05-01 11:04 | 44.47382 | 18.98259 | 23290 ft | 431 kts | 36° |
| 2026-05-01 11:04 | 44.49820 | 19.00695 | 23292 ft | 431 kts | 36° |
| 2026-05-01 11:05 | 44.52257 | 19.03132 | 23297 ft | 430 kts | 36° |
| 2026-05-01 11:05 | 44.54700 | 19.05578 | 23300 ft | 430 kts | 36° |
| 2026-05-01 11:05 | 44.56997 | 19.08171 | 23287 ft | 429 kts | 45° |
| 2026-05-01 11:05 | 44.58778 | 19.11528 | 23291 ft | 431 kts | 59° |
| 2026-05-01 11:06 | 44.59894 | 19.15424 | 23294 ft | 436 kts | 72° |
| 2026-05-01 11:06 | 44.60372 | 19.19659 | 23307 ft | 439 kts | 80° |
| 2026-05-01 11:06 | 44.60708 | 19.23858 | 23301 ft | 438 kts | 80° |
| 2026-05-01 11:07 | 44.61526 | 19.32335 | 23288 ft | 437 kts | 73° |
| 2026-05-01 11:07 | 44.62497 | 19.36354 | 23258 ft | 434 kts | 64° |
| 2026-05-01 11:07 | 44.63897 | 19.40059 | 22561 ft | 429 kts | 55° |
| 2026-05-01 11:07 | 44.65630 | 19.43353 | 21989 ft | 423 kts | 51° |
| 2026-05-01 11:08 | 44.67448 | 19.46594 | 21360 ft | 418 kts | 50° |
| 2026-05-01 11:08 | 44.69226 | 19.49742 | 20724 ft | 414 kts | 50° |
| 2026-05-01 11:08 | 44.72742 | 19.55990 | 19421 ft | 405 kts | 50° |
| 2026-05-01 11:09 | 44.74472 | 19.59077 | 18768 ft | 400 kts | 50° |
| 2026-05-01 11:09 | 44.76178 | 19.62129 | 18118 ft | 395 kts | 50° |
| 2026-05-01 11:09 | 44.77871 | 19.65161 | 17470 ft | 391 kts | 51° |
| 2026-05-01 11:10 | 44.81167 | 19.71078 | 16179 ft | 383 kts | 51° |
| 2026-05-01 11:10 | 44.82797 | 19.74011 | 15536 ft | 378 kts | 51° |
| 2026-05-01 11:10 | 44.84390 | 19.76879 | 14907 ft | 374 kts | 51° |
| 2026-05-01 11:10 | 44.85986 | 19.79757 | 14257 ft | 370 kts | 51° |
| 2026-05-01 11:11 | 44.87367 | 19.82800 | 13594 ft | 369 kts | 65° |
| 2026-05-01 11:11 | 44.87965 | 19.86294 | 12979 ft | 370 kts | 84° |
| 2026-05-01 11:11 | 44.87748 | 19.89824 | 12531 ft | 367 kts | 101° |
| 2026-05-01 11:11 | 44.86767 | 19.93111 | 12120 ft | 364 kts | 116° |
| 2026-05-01 11:12 | 44.85460 | 19.96097 | 11869 ft | 352 kts | 118° |
| 2026-05-01 11:12 | 44.84184 | 19.98980 | 11603 ft | 340 kts | 118° |
| 2026-05-01 11:12 | 44.82956 | 20.01753 | 11277 ft | 331 kts | 117° |
| 2026-05-01 11:12 | 44.81750 | 20.04481 | 11052 ft | 320 kts | 117° |
| 2026-05-01 11:13 | 44.80607 | 20.07068 | 10885 ft | 307 kts | 117° |
| 2026-05-01 11:13 | 44.79499 | 20.09578 | 10719 ft | 296 kts | 117° |
| 2026-05-01 11:13 | 44.78431 | 20.12000 | 10562 ft | 285 kts | 117° |
| 2026-05-01 11:13 | 44.77416 | 20.14297 | 10423 ft | 274 kts | 117° |
| 2026-05-01 11:14 | 44.76430 | 20.16526 | 10284 ft | 266 kts | 117° |
| 2026-05-01 11:14 | 44.75452 | 20.18740 | 9937 ft | 266 kts | 117° |
| 2026-05-01 11:14 | 44.74474 | 20.20959 | 9590 ft | 266 kts | 117° |
| 2026-05-01 11:14 | 44.73511 | 20.23137 | 9260 ft | 265 kts | 117° |
| 2026-05-01 11:15 | 44.72536 | 20.25338 | 8933 ft | 264 kts | 117° |
| 2026-05-01 11:15 | 44.71576 | 20.27501 | 8611 ft | 262 kts | 118° |
| 2026-05-01 11:15 | 44.70608 | 20.29684 | 8285 ft | 261 kts | 118° |
| 2026-05-01 11:15 | 44.69653 | 20.31834 | 7971 ft | 260 kts | 118° |
| 2026-05-01 11:16 | 44.68700 | 20.33979 | 7653 ft | 263 kts | 118° |
| 2026-05-01 11:16 | 44.67718 | 20.36189 | 7315 ft | 270 kts | 118° |
| 2026-05-01 11:16 | 44.66716 | 20.38438 | 6979 ft | 270 kts | 119° |
| 2026-05-01 11:16 | 44.65725 | 20.40661 | 6652 ft | 269 kts | 119° |
| 2026-05-01 11:17 | 44.64735 | 20.42879 | 6316 ft | 268 kts | 119° |
| 2026-05-01 11:17 | 44.63742 | 20.45098 | 5984 ft | 266 kts | 119° |
| 2026-05-01 11:17 | 44.62765 | 20.47284 | 5660 ft | 265 kts | 120° |
| 2026-05-01 11:17 | 44.61790 | 20.49464 | 5339 ft | 264 kts | 120° |
| 2026-05-01 11:18 | 44.60817 | 20.51636 | 5052 ft | 261 kts | 120° |
| 2026-05-01 11:18 | 44.59863 | 20.53768 | 4994 ft | 258 kts | 119° |
| 2026-05-01 11:18 | 44.58910 | 20.55892 | 4660 ft | 257 kts | 119° |
| 2026-05-01 11:18 | 44.58019 | 20.58079 | 4201 ft | 257 kts | 107° |
| 2026-05-01 11:19 | 44.57947 | 20.60483 | 3995 ft | 248 kts | 70° |
| 2026-05-01 11:19 | 44.58832 | 20.62512 | 3997 ft | 249 kts | 43° |
| 2026-05-01 11:19 | 44.60288 | 20.63809 | 3993 ft | 250 kts | 19° |
| 2026-05-01 11:19 | 44.62008 | 20.64079 | 3990 ft | 252 kts | 353° |
| 2026-05-01 11:20 | 44.63674 | 20.63256 | 3999 ft | 254 kts | 334° |
| 2026-05-01 11:20 | 44.65189 | 20.62142 | 3992 ft | 239 kts | 334° |
| 2026-05-01 11:20 | 44.66612 | 20.61104 | 3985 ft | 224 kts | 334° |
| 2026-05-01 11:20 | 44.67964 | 20.60132 | 3986 ft | 213 kts | 335° |
| 2026-05-01 11:21 | 44.69191 | 20.58966 | 3984 ft | 216 kts | 316° |
| 2026-05-01 11:21 | 44.70081 | 20.57249 | 3768 ft | 218 kts | 303° |
| 2026-05-01 11:21 | 44.70841 | 20.55420 | 3545 ft | 215 kts | 302° |
| 2026-05-01 11:21 | 44.71586 | 20.53647 | 3347 ft | 209 kts | 304° |
| 2026-05-01 11:22 | 44.72341 | 20.51955 | 3257 ft | 198 kts | 304° |
| 2026-05-01 11:22 | 44.73043 | 20.50384 | 3267 ft | 188 kts | 304° |
| 2026-05-01 11:22 | 44.73735 | 20.48829 | 3053 ft | 186 kts | 304° |
| 2026-05-01 11:22 | 44.74413 | 20.47290 | 2797 ft | 183 kts | 304° |
| 2026-05-01 11:23 | 44.75072 | 20.45792 | 2551 ft | 178 kts | 304° |
| 2026-05-01 11:23 | 44.75713 | 20.44333 | 2312 ft | 173 kts | 304° |
| 2026-05-01 11:23 | 44.76329 | 20.42933 | 2079 ft | 163 kts | 304° |
| 2026-05-01 11:23 | 44.76906 | 20.41624 | 1863 ft | 150 kts | 304° |
| 2026-05-01 11:24 | 44.77441 | 20.40411 | 1681 ft | 140 kts | 304° |
| 2026-05-01 11:24 | 44.77939 | 20.39286 | 1505 ft | 135 kts | 304° |
| 2026-05-01 11:24 | 44.78921 | 20.37066 | 1155 ft | 134 kts | 304° |
| 2026-05-01 11:25 | 44.79412 | 20.35956 | 984 ft | 133 kts | 304° |
| 2026-05-01 11:25 | 44.80388 | 20.33752 | 615 ft | 132 kts | 304° |
| 2026-05-01 11:25 | 44.80879 | 20.32646 | 447 ft | 131 kts | 303° |
| 2026-05-01 11:26 | 44.81350 | 20.31582 | 345 ft | 123 kts | 303° |
| 2026-05-01 11:26 | 44.81964 | 20.30205 | 343 ft | 58 kts | 301° |
| 2026-05-01 11:26 | 44.82120 | 20.29847 | 343 ft | 29 kts | 303° |
| 2026-05-01 11:27 | 44.82131 | 20.29671 | 343 ft | 14 kts | 220° |
| 2026-05-01 11:27 | 44.82105 | 20.29554 | 343 ft | 10 kts | 258° |
| 2026-05-01 11:27 | 44.82059 | 20.29543 | 343 ft | 3 kts | 188° |
| 2026-05-01 11:27 | 44.82027 | 20.29465 | 343 ft | 9 kts | 223° |
| 2026-05-01 11:28 | 44.81988 | 20.29411 | 343 ft | 5 kts | 267° |
| 2026-05-01 11:28 | 44.82008 | 20.29362 | 343 ft | 5 kts | 304° |
| 2026-05-01 11:28 | 44.82012 | 20.29353 | 343 ft | 0 kts | 304° |